sensor_id;sensor_type;location;lat;lon;timestamp;P1;durP1;ratioP1;P2;durP2;ratioP2
19619;SDS011;9957;52.282;21.110;2023-02-01T00:01:30;14.53;;;5.77;;
19619;SDS011;9957;52.282;21.110;2023-02-01T00:03:56;12.77;;;5.43;;
19619;SDS011;9957;52.282;21.110;2023-02-01T00:06:22;9.33;;;4.87;;
19619;SDS011;9957;52.282;21.110;2023-02-01T00:08:49;11.73;;;5.33;;
19619;SDS011;9957;52.282;21.110;2023-02-01T00:11:17;12.07;;;5.07;;
19619;SDS011;9957;52.282;21.110;2023-02-01T00:13:43;10.23;;;5.07;;
19619;SDS011;9957;52.282;21.110;2023-02-01T00:16:14;14.47;;;6.07;;
19619;SDS011;9957;52.282;21.110;2023-02-01T00:18:44;12.03;;;5.50;;
19619;SDS011;9957;52.282;21.110;2023-02-01T00:21:11;10.63;;;4.73;;
19619;SDS011;9957;52.282;21.110;2023-02-01T00:23:37;12.83;;;4.93;;
19619;SDS011;9957;52.282;21.110;2023-02-01T00:26:05;12.97;;;4.83;;
19619;SDS011;9957;52.282;21.110;2023-02-01T00:28:31;13.27;;;5.20;;
19619;SDS011;9957;52.282;21.110;2023-02-01T00:31:01;13.10;;;4.80;;
19619;SDS011;9957;52.282;21.110;2023-02-01T00:33:28;9.97;;;4.33;;
19619;SDS011;9957;52.282;21.110;2023-02-01T00:35:58;11.63;;;4.67;;
19619;SDS011;9957;52.282;21.110;2023-02-01T00:38:25;12.83;;;5.03;;
19619;SDS011;9957;52.282;21.110;2023-02-01T00:40:51;10.23;;;4.40;;
19619;SDS011;9957;52.282;21.110;2023-02-01T00:43:17;9.43;;;4.10;;
19619;SDS011;9957;52.282;21.110;2023-02-01T00:45:44;10.83;;;3.90;;
19619;SDS011;9957;52.282;21.110;2023-02-01T00:48:10;7.23;;;3.47;;
19619;SDS011;9957;52.282;21.110;2023-02-01T00:50:40;11.57;;;3.53;;
19619;SDS011;9957;52.282;21.110;2023-02-01T00:53:07;7.30;;;3.30;;
19619;SDS011;9957;52.282;21.110;2023-02-01T00:55:33;7.30;;;3.37;;
19619;SDS011;9957;52.282;21.110;2023-02-01T00:57:59;13.50;;;3.73;;
19619;SDS011;9957;52.282;21.110;2023-02-01T01:00:26;8.77;;;3.37;;
19619;SDS011;9957;52.282;21.110;2023-02-01T01:02:52;8.50;;;3.30;;
19619;SDS011;9957;52.282;21.110;2023-02-01T01:05:18;6.23;;;2.43;;
19619;SDS011;9957;52.282;21.110;2023-02-01T01:07:44;11.23;;;3.10;;
19619;SDS011;9957;52.282;21.110;2023-02-01T01:10:10;8.80;;;3.00;;
19619;SDS011;9957;52.282;21.110;2023-02-01T01:12:36;7.87;;;3.47;;
19619;SDS011;9957;52.282;21.110;2023-02-01T01:15:02;5.57;;;2.10;;
19619;SDS011;9957;52.282;21.110;2023-02-01T01:17:30;5.90;;;2.67;;
19619;SDS011;9957;52.282;21.110;2023-02-01T01:19:56;5.20;;;2.10;;
19619;SDS011;9957;52.282;21.110;2023-02-01T01:22:22;3.50;;;1.90;;
19619;SDS011;9957;52.282;21.110;2023-02-01T01:24:48;3.80;;;2.00;;
19619;SDS011;9957;52.282;21.110;2023-02-01T01:27:14;10.97;;;2.10;;
19619;SDS011;9957;52.282;21.110;2023-02-01T01:29:47;5.53;;;1.93;;
19619;SDS011;9957;52.282;21.110;2023-02-01T01:32:13;8.50;;;2.33;;
19619;SDS011;9957;52.282;21.110;2023-02-01T01:34:39;5.17;;;1.73;;
19619;SDS011;9957;52.282;21.110;2023-02-01T01:37:05;5.97;;;2.03;;
19619;SDS011;9957;52.282;21.110;2023-02-01T01:39:31;5.50;;;1.90;;
19619;SDS011;9957;52.282;21.110;2023-02-01T01:41:57;5.03;;;1.43;;
19619;SDS011;9957;52.282;21.110;2023-02-01T01:47:08;2.80;;;1.43;;
19619;SDS011;9957;52.282;21.110;2023-02-01T01:49:35;7.87;;;2.07;;
19619;SDS011;9957;52.282;21.110;2023-02-01T01:52:03;8.70;;;1.93;;
19619;SDS011;9957;52.282;21.110;2023-02-01T01:54:33;7.63;;;1.80;;
19619;SDS011;9957;52.282;21.110;2023-02-01T01:57:09;6.70;;;1.93;;
19619;SDS011;9957;52.282;21.110;2023-02-01T01:59:38;7.77;;;1.80;;
19619;SDS011;9957;52.282;21.110;2023-02-01T02:02:04;7.17;;;1.77;;
19619;SDS011;9957;52.282;21.110;2023-02-01T02:04:30;7.97;;;2.07;;
19619;SDS011;9957;52.282;21.110;2023-02-01T02:06:59;10.13;;;2.10;;
19619;SDS011;9957;52.282;21.110;2023-02-01T02:09:26;12.97;;;2.20;;
19619;SDS011;9957;52.282;21.110;2023-02-01T02:11:52;8.43;;;1.93;;
19619;SDS011;9957;52.282;21.110;2023-02-01T02:14:19;6.57;;;1.93;;
19619;SDS011;9957;52.282;21.110;2023-02-01T02:16:48;7.33;;;1.90;;
19619;SDS011;9957;52.282;21.110;2023-02-01T02:27:27;8.23;;;1.20;;
19619;SDS011;9957;52.282;21.110;2023-02-01T02:32:52;9.80;;;1.73;;
19619;SDS011;9957;52.282;21.110;2023-02-01T02:35:28;8.70;;;1.67;;
19619;SDS011;9957;52.282;21.110;2023-02-01T02:38:02;4.80;;;1.47;;
19619;SDS011;9957;52.282;21.110;2023-02-01T02:40:32;10.33;;;1.63;;
19619;SDS011;9957;52.282;21.110;2023-02-01T02:45:53;3.83;;;1.50;;
19619;SDS011;9957;52.282;21.110;2023-02-01T02:51:07;9.33;;;1.87;;
19619;SDS011;9957;52.282;21.110;2023-02-01T02:54:00;8.37;;;1.97;;
19619;SDS011;9957;52.282;21.110;2023-02-01T02:56:46;12.33;;;2.07;;
19619;SDS011;9957;52.282;21.110;2023-02-01T02:59:31;7.37;;;2.13;;
19619;SDS011;9957;52.282;21.110;2023-02-01T03:02:17;7.77;;;2.20;;
19619;SDS011;9957;52.282;21.110;2023-02-01T03:05:02;10.43;;;1.93;;
19619;SDS011;9957;52.282;21.110;2023-02-01T03:12:51;5.13;;;1.40;;
19619;SDS011;9957;52.282;21.110;2023-02-01T03:15:56;8.33;;;2.20;;
19619;SDS011;9957;52.282;21.110;2023-02-01T03:18:15;7.03;;;1.53;;
19619;SDS011;9957;52.282;21.110;2023-02-01T03:20:43;7.67;;;1.87;;
19619;SDS011;9957;52.282;21.110;2023-02-01T03:23:10;9.23;;;1.97;;
19619;SDS011;9957;52.282;21.110;2023-02-01T03:25:39;8.43;;;2.33;;
19619;SDS011;9957;52.282;21.110;2023-02-01T03:28:06;4.93;;;1.37;;
19619;SDS011;9957;52.282;21.110;2023-02-01T03:33:04;12.00;;;1.63;;
19619;SDS011;9957;52.282;21.110;2023-02-01T03:38:26;14.27;;;1.60;;
19619;SDS011;9957;52.282;21.110;2023-02-01T03:40:56;8.27;;;2.10;;
19619;SDS011;9957;52.282;21.110;2023-02-01T03:43:23;6.67;;;1.87;;
19619;SDS011;9957;52.282;21.110;2023-02-01T03:45:52;9.20;;;2.07;;
19619;SDS011;9957;52.282;21.110;2023-02-01T03:48:20;10.83;;;1.97;;
19619;SDS011;9957;52.282;21.110;2023-02-01T03:50:48;12.43;;;1.90;;
19619;SDS011;9957;52.282;21.110;2023-02-01T03:53:16;3.87;;;1.50;;
19619;SDS011;9957;52.282;21.110;2023-02-01T03:55:43;9.90;;;2.10;;
19619;SDS011;9957;52.282;21.110;2023-02-01T03:58:14;15.00;;;1.93;;
19619;SDS011;9957;52.282;21.110;2023-02-01T04:00:43;9.10;;;1.70;;
19619;SDS011;9957;52.282;21.110;2023-02-01T04:03:09;10.83;;;2.37;;
19619;SDS011;9957;52.282;21.110;2023-02-01T04:05:35;10.17;;;1.93;;
19619;SDS011;9957;52.282;21.110;2023-02-01T04:08:02;11.80;;;2.10;;
19619;SDS011;9957;52.282;21.110;2023-02-01T04:10:30;7.80;;;1.90;;
19619;SDS011;9957;52.282;21.110;2023-02-01T04:12:56;12.87;;;2.10;;
19619;SDS011;9957;52.282;21.110;2023-02-01T04:15:22;10.83;;;2.40;;
19619;SDS011;9957;52.282;21.110;2023-02-01T04:17:48;5.03;;;1.73;;
19619;SDS011;9957;52.282;21.110;2023-02-01T04:20:14;10.03;;;2.20;;
19619;SDS011;9957;52.282;21.110;2023-02-01T04:22:40;9.23;;;1.87;;
19619;SDS011;9957;52.282;21.110;2023-02-01T04:25:07;14.43;;;1.90;;
19619;SDS011;9957;52.282;21.110;2023-02-01T04:27:33;6.87;;;1.70;;
19619;SDS011;9957;52.282;21.110;2023-02-01T04:30:00;14.63;;;2.13;;
19619;SDS011;9957;52.282;21.110;2023-02-01T04:32:26;13.63;;;2.40;;
19619;SDS011;9957;52.282;21.110;2023-02-01T04:34:52;5.87;;;1.77;;
19619;SDS011;9957;52.282;21.110;2023-02-01T04:37:18;18.77;;;2.73;;
19619;SDS011;9957;52.282;21.110;2023-02-01T04:39:44;8.83;;;1.97;;
19619;SDS011;9957;52.282;21.110;2023-02-01T04:42:10;15.37;;;2.10;;
19619;SDS011;9957;52.282;21.110;2023-02-01T04:44:36;14.57;;;2.03;;
19619;SDS011;9957;52.282;21.110;2023-02-01T04:47:04;14.60;;;2.50;;
19619;SDS011;9957;52.282;21.110;2023-02-01T04:49:30;10.27;;;1.60;;
19619;SDS011;9957;52.282;21.110;2023-02-01T04:51:56;16.20;;;2.37;;
19619;SDS011;9957;52.282;21.110;2023-02-01T04:54:22;7.40;;;1.90;;
19619;SDS011;9957;52.282;21.110;2023-02-01T04:56:48;8.83;;;2.00;;
19619;SDS011;9957;52.282;21.110;2023-02-01T04:59:14;16.00;;;2.60;;
19619;SDS011;9957;52.282;21.110;2023-02-01T05:01:40;10.07;;;1.80;;
19619;SDS011;9957;52.282;21.110;2023-02-01T05:04:06;14.27;;;2.23;;
19619;SDS011;9957;52.282;21.110;2023-02-01T05:06:32;11.37;;;2.40;;
19619;SDS011;9957;52.282;21.110;2023-02-01T05:08:58;12.03;;;2.13;;
19619;SDS011;9957;52.282;21.110;2023-02-01T05:11:24;14.33;;;2.47;;
19619;SDS011;9957;52.282;21.110;2023-02-01T05:14:09;13.47;;;2.07;;
19619;SDS011;9957;52.282;21.110;2023-02-01T05:16:35;14.37;;;1.90;;
19619;SDS011;9957;52.282;21.110;2023-02-01T05:19:01;12.80;;;2.23;;
19619;SDS011;9957;52.282;21.110;2023-02-01T05:21:27;8.97;;;1.90;;
19619;SDS011;9957;52.282;21.110;2023-02-01T05:23:53;15.30;;;2.27;;
19619;SDS011;9957;52.282;21.110;2023-02-01T05:26:34;8.83;;;1.77;;
19619;SDS011;9957;52.282;21.110;2023-02-01T05:29:01;12.90;;;1.93;;
19619;SDS011;9957;52.282;21.110;2023-02-01T05:31:27;10.33;;;2.00;;
19619;SDS011;9957;52.282;21.110;2023-02-01T05:33:53;16.33;;;2.07;;
19619;SDS011;9957;52.282;21.110;2023-02-01T05:36:19;13.67;;;2.40;;
19619;SDS011;9957;52.282;21.110;2023-02-01T05:38:45;17.17;;;2.27;;
19619;SDS011;9957;52.282;21.110;2023-02-01T05:41:11;5.27;;;1.83;;
19619;SDS011;9957;52.282;21.110;2023-02-01T05:43:37;14.57;;;1.90;;
19619;SDS011;9957;52.282;21.110;2023-02-01T05:46:03;8.67;;;1.80;;
19619;SDS011;9957;52.282;21.110;2023-02-01T05:48:29;14.20;;;2.07;;
19619;SDS011;9957;52.282;21.110;2023-02-01T05:50:55;14.10;;;2.30;;
19619;SDS011;9957;52.282;21.110;2023-02-01T05:53:21;10.17;;;2.03;;
19619;SDS011;9957;52.282;21.110;2023-02-01T05:55:47;11.00;;;1.90;;
19619;SDS011;9957;52.282;21.110;2023-02-01T05:58:14;10.50;;;1.90;;
19619;SDS011;9957;52.282;21.110;2023-02-01T06:00:40;12.67;;;1.90;;
19619;SDS011;9957;52.282;21.110;2023-02-01T06:03:06;13.33;;;2.80;;
19619;SDS011;9957;52.282;21.110;2023-02-01T06:05:32;13.43;;;2.23;;
19619;SDS011;9957;52.282;21.110;2023-02-01T06:07:58;12.77;;;2.13;;
19619;SDS011;9957;52.282;21.110;2023-02-01T06:10:24;8.00;;;2.60;;
19619;SDS011;9957;52.282;21.110;2023-02-01T06:12:50;10.37;;;1.97;;
19619;SDS011;9957;52.282;21.110;2023-02-01T06:15:17;11.93;;;2.10;;
19619;SDS011;9957;52.282;21.110;2023-02-01T06:17:44;11.73;;;2.23;;
19619;SDS011;9957;52.282;21.110;2023-02-01T06:20:11;12.77;;;2.10;;
19619;SDS011;9957;52.282;21.110;2023-02-01T06:22:37;22.57;;;2.50;;
19619;SDS011;9957;52.282;21.110;2023-02-01T06:25:04;8.90;;;2.30;;
19619;SDS011;9957;52.282;21.110;2023-02-01T06:27:30;21.30;;;2.90;;
19619;SDS011;9957;52.282;21.110;2023-02-01T06:29:57;15.17;;;2.20;;
19619;SDS011;9957;52.282;21.110;2023-02-01T06:32:23;8.23;;;2.07;;
19619;SDS011;9957;52.282;21.110;2023-02-01T06:34:49;12.00;;;1.97;;
19619;SDS011;9957;52.282;21.110;2023-02-01T06:37:17;14.00;;;2.47;;
19619;SDS011;9957;52.282;21.110;2023-02-01T06:39:43;15.60;;;2.53;;
19619;SDS011;9957;52.282;21.110;2023-02-01T06:42:09;10.43;;;1.93;;
19619;SDS011;9957;52.282;21.110;2023-02-01T06:44:35;10.67;;;1.97;;
19619;SDS011;9957;52.282;21.110;2023-02-01T06:47:03;22.63;;;7.03;;
19619;SDS011;9957;52.282;21.110;2023-02-01T06:49:29;13.90;;;2.53;;
19619;SDS011;9957;52.282;21.110;2023-02-01T06:51:55;14.43;;;2.80;;
19619;SDS011;9957;52.282;21.110;2023-02-01T06:54:21;15.50;;;2.27;;
19619;SDS011;9957;52.282;21.110;2023-02-01T06:56:47;24.57;;;2.77;;
19619;SDS011;9957;52.282;21.110;2023-02-01T06:59:13;10.27;;;2.23;;
19619;SDS011;9957;52.282;21.110;2023-02-01T07:01:39;21.73;;;2.17;;
19619;SDS011;9957;52.282;21.110;2023-02-01T07:04:05;12.03;;;1.83;;
19619;SDS011;9957;52.282;21.110;2023-02-01T07:06:31;9.80;;;1.60;;
19619;SDS011;9957;52.282;21.110;2023-02-01T07:08:57;9.07;;;2.00;;
19619;SDS011;9957;52.282;21.110;2023-02-01T07:11:25;14.83;;;2.33;;
19619;SDS011;9957;52.282;21.110;2023-02-01T07:13:53;12.10;;;2.03;;
19619;SDS011;9957;52.282;21.110;2023-02-01T07:16:19;28.53;;;8.27;;
19619;SDS011;9957;52.282;21.110;2023-02-01T07:18:46;17.80;;;5.97;;
19619;SDS011;9957;52.282;21.110;2023-02-01T07:21:12;26.97;;;8.97;;
19619;SDS011;9957;52.282;21.110;2023-02-01T07:23:38;18.00;;;3.20;;
19619;SDS011;9957;52.282;21.110;2023-02-01T07:26:05;23.10;;;5.77;;
19619;SDS011;9957;52.282;21.110;2023-02-01T07:28:33;20.43;;;5.30;;
19619;SDS011;9957;52.282;21.110;2023-02-01T07:31:03;21.93;;;6.13;;
19619;SDS011;9957;52.282;21.110;2023-02-01T07:33:30;21.63;;;5.93;;
19619;SDS011;9957;52.282;21.110;2023-02-01T07:35:56;36.57;;;9.53;;
19619;SDS011;9957;52.282;21.110;2023-02-01T07:38:22;23.43;;;4.30;;
19619;SDS011;9957;52.282;21.110;2023-02-01T07:40:48;18.00;;;4.53;;
19619;SDS011;9957;52.282;21.110;2023-02-01T07:43:15;20.23;;;4.83;;
19619;SDS011;9957;52.282;21.110;2023-02-01T07:45:41;15.37;;;4.17;;
19619;SDS011;9957;52.282;21.110;2023-02-01T07:48:07;11.27;;;4.13;;
19619;SDS011;9957;52.282;21.110;2023-02-01T07:50:33;10.97;;;4.07;;
19619;SDS011;9957;52.282;21.110;2023-02-01T07:52:59;16.10;;;3.43;;
19619;SDS011;9957;52.282;21.110;2023-02-01T07:55:26;14.33;;;3.40;;
19619;SDS011;9957;52.282;21.110;2023-02-01T07:57:52;16.97;;;3.67;;
19619;SDS011;9957;52.282;21.110;2023-02-01T08:00:19;17.97;;;2.60;;
19619;SDS011;9957;52.282;21.110;2023-02-01T08:03:04;15.57;;;2.80;;
19619;SDS011;9957;52.282;21.110;2023-02-01T08:05:30;14.70;;;2.77;;
19619;SDS011;9957;52.282;21.110;2023-02-01T08:07:56;21.57;;;3.90;;
19619;SDS011;9957;52.282;21.110;2023-02-01T08:10:22;24.93;;;4.03;;
19619;SDS011;9957;52.282;21.110;2023-02-01T08:12:48;10.30;;;2.60;;
19619;SDS011;9957;52.282;21.110;2023-02-01T08:15:17;17.83;;;5.07;;
19619;SDS011;9957;52.282;21.110;2023-02-01T08:17:46;26.23;;;4.40;;
19619;SDS011;9957;52.282;21.110;2023-02-01T08:20:13;20.97;;;3.53;;
19619;SDS011;9957;52.282;21.110;2023-02-01T08:22:39;19.67;;;4.53;;
19619;SDS011;9957;52.282;21.110;2023-02-01T08:25:05;19.00;;;4.27;;
19619;SDS011;9957;52.282;21.110;2023-02-01T08:27:35;23.33;;;4.60;;
19619;SDS011;9957;52.282;21.110;2023-02-01T08:30:01;21.10;;;5.60;;
19619;SDS011;9957;52.282;21.110;2023-02-01T08:32:27;19.53;;;6.33;;
19619;SDS011;9957;52.282;21.110;2023-02-01T08:34:53;21.13;;;4.30;;
19619;SDS011;9957;52.282;21.110;2023-02-01T08:37:19;21.07;;;5.23;;
19619;SDS011;9957;52.282;21.110;2023-02-01T08:39:45;19.60;;;6.00;;
19619;SDS011;9957;52.282;21.110;2023-02-01T08:42:12;13.90;;;4.00;;
19619;SDS011;9957;52.282;21.110;2023-02-01T08:44:57;25.43;;;4.87;;
19619;SDS011;9957;52.282;21.110;2023-02-01T08:47:23;12.53;;;3.43;;
19619;SDS011;9957;52.282;21.110;2023-02-01T08:49:49;13.97;;;4.50;;
19619;SDS011;9957;52.282;21.110;2023-02-01T08:52:18;18.27;;;4.00;;
19619;SDS011;9957;52.282;21.110;2023-02-01T08:54:44;12.13;;;3.40;;
19619;SDS011;9957;52.282;21.110;2023-02-01T08:57:10;12.37;;;3.03;;
19619;SDS011;9957;52.282;21.110;2023-02-01T08:59:37;16.67;;;3.60;;
19619;SDS011;9957;52.282;21.110;2023-02-01T09:02:03;20.60;;;5.47;;
19619;SDS011;9957;52.282;21.110;2023-02-01T09:04:29;15.60;;;3.33;;
19619;SDS011;9957;52.282;21.110;2023-02-01T09:06:55;12.33;;;4.17;;
19619;SDS011;9957;52.282;21.110;2023-02-01T09:09:22;18.57;;;4.57;;
19619;SDS011;9957;52.282;21.110;2023-02-01T09:11:48;20.73;;;5.20;;
19619;SDS011;9957;52.282;21.110;2023-02-01T09:14:15;21.87;;;4.10;;
19619;SDS011;9957;52.282;21.110;2023-02-01T09:16:41;19.77;;;3.87;;
19619;SDS011;9957;52.282;21.110;2023-02-01T09:19:07;16.83;;;2.93;;
19619;SDS011;9957;52.282;21.110;2023-02-01T09:21:33;20.50;;;3.83;;
19619;SDS011;9957;52.282;21.110;2023-02-01T09:23:59;16.20;;;2.57;;
19619;SDS011;9957;52.282;21.110;2023-02-01T09:26:26;16.63;;;3.47;;
19619;SDS011;9957;52.282;21.110;2023-02-01T09:28:52;16.03;;;3.73;;
19619;SDS011;9957;52.282;21.110;2023-02-01T09:31:18;15.10;;;3.03;;
19619;SDS011;9957;52.282;21.110;2023-02-01T09:33:44;17.07;;;3.17;;
19619;SDS011;9957;52.282;21.110;2023-02-01T09:36:11;27.47;;;6.67;;
19619;SDS011;9957;52.282;21.110;2023-02-01T09:38:37;26.33;;;7.57;;
19619;SDS011;9957;52.282;21.110;2023-02-01T09:41:07;28.45;;;7.10;;
19619;SDS011;9957;52.282;21.110;2023-02-01T09:48:32;33.90;;;7.60;;
19619;SDS011;9957;52.282;21.110;2023-02-01T09:50:59;25.87;;;7.80;;
19619;SDS011;9957;52.282;21.110;2023-02-01T09:53:29;26.13;;;7.33;;
19619;SDS011;9957;52.282;21.110;2023-02-01T09:56:05;18.93;;;5.53;;
19619;SDS011;9957;52.282;21.110;2023-02-01T10:01:18;26.00;;;7.93;;
19619;SDS011;9957;52.282;21.110;2023-02-01T10:03:45;27.70;;;7.33;;
19619;SDS011;9957;52.282;21.110;2023-02-01T10:11:39;21.73;;;6.87;;
19619;SDS011;9957;52.282;21.110;2023-02-01T10:14:17;23.47;;;7.37;;
19619;SDS011;9957;52.282;21.110;2023-02-01T10:22:01;35.40;;;9.07;;
19619;SDS011;9957;52.282;21.110;2023-02-01T10:24:39;17.30;;;4.40;;
19619;SDS011;9957;52.282;21.110;2023-02-01T10:29:42;27.40;;;7.17;;
19619;SDS011;9957;52.282;21.110;2023-02-01T10:32:20;30.73;;;7.80;;
19619;SDS011;9957;52.282;21.110;2023-02-01T10:34:52;27.10;;;6.73;;
19619;SDS011;9957;52.282;21.110;2023-02-01T10:37:26;29.33;;;6.73;;
19619;SDS011;9957;52.282;21.110;2023-02-01T10:39:54;23.83;;;5.97;;
19619;SDS011;9957;52.282;21.110;2023-02-01T10:42:21;19.83;;;5.50;;
19619;SDS011;9957;52.282;21.110;2023-02-01T10:44:49;25.00;;;6.23;;
19619;SDS011;9957;52.282;21.110;2023-02-01T10:47:15;27.60;;;7.37;;
19619;SDS011;9957;52.282;21.110;2023-02-01T10:55:11;25.67;;;5.63;;
19619;SDS011;9957;52.282;21.110;2023-02-01T10:57:48;19.90;;;4.53;;
19619;SDS011;9957;52.282;21.110;2023-02-01T11:00:21;31.70;;;8.90;;
19619;SDS011;9957;52.282;21.110;2023-02-01T11:02:47;27.20;;;7.33;;
19619;SDS011;9957;52.282;21.110;2023-02-01T11:05:15;16.90;;;4.50;;
19619;SDS011;9957;52.282;21.110;2023-02-01T11:07:50;29.20;;;6.33;;
19619;SDS011;9957;52.282;21.110;2023-02-01T11:13:04;24.40;;;5.47;;
19619;SDS011;9957;52.282;21.110;2023-02-01T11:15:30;26.63;;;5.70;;
19619;SDS011;9957;52.282;21.110;2023-02-01T11:17:56;16.03;;;4.13;;
19619;SDS011;9957;52.282;21.110;2023-02-01T11:22:59;42.17;;;11.47;;
19619;SDS011;9957;52.282;21.110;2023-02-01T11:25:26;24.97;;;5.50;;
19619;SDS011;9957;52.282;21.110;2023-02-01T11:27:53;21.77;;;4.93;;
19619;SDS011;9957;52.282;21.110;2023-02-01T11:30:36;18.80;;;4.27;;
19619;SDS011;9957;52.282;21.110;2023-02-01T11:33:05;22.90;;;5.13;;
19619;SDS011;9957;52.282;21.110;2023-02-01T11:35:32;24.63;;;5.03;;
19619;SDS011;9957;52.282;21.110;2023-02-01T11:38:00;25.43;;;7.03;;
19619;SDS011;9957;52.282;21.110;2023-02-01T11:40:29;18.57;;;5.20;;
19619;SDS011;9957;52.282;21.110;2023-02-01T11:42:59;25.70;;;7.00;;
19619;SDS011;9957;52.282;21.110;2023-02-01T11:47:52;15.70;;;3.80;;
19619;SDS011;9957;52.282;21.110;2023-02-01T11:50:22;27.63;;;6.77;;
19619;SDS011;9957;52.282;21.110;2023-02-01T11:52:55;22.03;;;4.67;;
19619;SDS011;9957;52.282;21.110;2023-02-01T12:06:07;18.13;;;5.43;;
19619;SDS011;9957;52.282;21.110;2023-02-01T12:11:08;18.30;;;4.77;;
19619;SDS011;9957;52.282;21.110;2023-02-01T12:16:35;18.43;;;6.73;;
19619;SDS011;9957;52.282;21.110;2023-02-01T12:19:23;32.00;;;8.90;;
19619;SDS011;9957;52.282;21.110;2023-02-01T12:22:03;28.93;;;8.83;;
19619;SDS011;9957;52.282;21.110;2023-02-01T12:29:30;18.17;;;4.87;;
19619;SDS011;9957;52.282;21.110;2023-02-01T12:32:07;17.90;;;5.03;;
19619;SDS011;9957;52.282;21.110;2023-02-01T12:42:30;14.70;;;4.30;;
19619;SDS011;9957;52.282;21.110;2023-02-01T12:47:29;19.10;;;5.00;;
19619;SDS011;9957;52.282;21.110;2023-02-01T12:52:26;20.93;;;6.03;;
19619;SDS011;9957;52.282;21.110;2023-02-01T12:55:00;23.13;;;4.50;;
19619;SDS011;9957;52.282;21.110;2023-02-01T12:57:31;14.33;;;4.57;;
19619;SDS011;9957;52.282;21.110;2023-02-01T13:05:01;49.33;;;12.10;;
19619;SDS011;9957;52.282;21.110;2023-02-01T13:08:11;23.00;;;5.87;;
19619;SDS011;9957;52.282;21.110;2023-02-01T13:10:24;33.60;;;6.77;;
19619;SDS011;9957;52.282;21.110;2023-02-01T13:15:21;43.67;;;14.80;;
19619;SDS011;9957;52.282;21.110;2023-02-01T13:17:49;29.53;;;8.43;;
19619;SDS011;9957;52.282;21.110;2023-02-01T13:22:42;54.50;;;17.10;;
19619;SDS011;9957;52.282;21.110;2023-02-01T13:27:35;49.63;;;12.90;;
19619;SDS011;9957;52.282;21.110;2023-02-01T13:30:10;29.15;;;7.57;;
19619;SDS011;9957;52.282;21.110;2023-02-01T13:35:22;21.67;;;6.03;;
19619;SDS011;9957;52.282;21.110;2023-02-01T13:40:44;20.98;;;5.05;;
19619;SDS011;9957;52.282;21.110;2023-02-01T13:43:12;22.08;;;5.63;;
19619;SDS011;9957;52.282;21.110;2023-02-01T13:45:43;23.30;;;6.18;;
19619;SDS011;9957;52.282;21.110;2023-02-01T13:48:17;25.77;;;7.47;;
19619;SDS011;9957;52.282;21.110;2023-02-01T13:50:48;27.55;;;7.68;;
19619;SDS011;9957;52.282;21.110;2023-02-01T13:53:17;34.38;;;10.77;;
19619;SDS011;9957;52.282;21.110;2023-02-01T13:56:07;53.45;;;17.83;;
19619;SDS011;9957;52.282;21.110;2023-02-01T13:58:38;36.53;;;9.63;;
19619;SDS011;9957;52.282;21.110;2023-02-01T14:03:45;29.05;;;7.70;;
19619;SDS011;9957;52.282;21.110;2023-02-01T14:09:53;24.67;;;6.33;;
19619;SDS011;9957;52.282;21.110;2023-02-01T14:11:49;22.45;;;6.95;;
19619;SDS011;9957;52.282;21.110;2023-02-01T14:19:21;15.10;;;4.97;;
19619;SDS011;9957;52.282;21.110;2023-02-01T14:21:51;15.05;;;4.95;;
19619;SDS011;9957;52.282;21.110;2023-02-01T14:24:29;13.63;;;4.87;;
19619;SDS011;9957;52.282;21.110;2023-02-01T14:26:57;18.20;;;5.90;;
19619;SDS011;9957;52.282;21.110;2023-02-01T14:31:54;19.88;;;5.90;;
19619;SDS011;9957;52.282;21.110;2023-02-01T14:34:48;23.70;;;6.47;;
19619;SDS011;9957;52.282;21.110;2023-02-01T14:44:53;31.80;;;11.10;;
19619;SDS011;9957;52.282;21.110;2023-02-01T14:52:19;29.80;;;11.07;;
19619;SDS011;9957;52.282;21.110;2023-02-01T14:54:49;27.52;;;8.60;;
19619;SDS011;9957;52.282;21.110;2023-02-01T14:57:18;20.23;;;7.63;;
19619;SDS011;9957;52.282;21.110;2023-02-01T14:59:45;24.15;;;9.23;;
19619;SDS011;9957;52.282;21.110;2023-02-01T15:02:20;35.10;;;14.13;;
19619;SDS011;9957;52.282;21.110;2023-02-01T15:04:46;18.55;;;7.15;;
19619;SDS011;9957;52.282;21.110;2023-02-01T15:07:18;23.77;;;8.98;;
19619;SDS011;9957;52.282;21.110;2023-02-01T15:09:45;23.25;;;9.30;;
19619;SDS011;9957;52.282;21.110;2023-02-01T15:17:18;9.02;;;4.53;;
19619;SDS011;9957;52.282;21.110;2023-02-01T15:22:19;9.52;;;3.97;;
19619;SDS011;9957;52.282;21.110;2023-02-01T15:24:51;18.33;;;7.27;;
19619;SDS011;9957;52.282;21.110;2023-02-01T15:27:18;16.58;;;6.47;;
19619;SDS011;9957;52.282;21.110;2023-02-01T15:29:44;13.48;;;5.80;;
19619;SDS011;9957;52.282;21.110;2023-02-01T15:32:32;15.60;;;5.35;;
19619;SDS011;9957;52.282;21.110;2023-02-01T15:34:58;16.10;;;6.15;;
19619;SDS011;9957;52.282;21.110;2023-02-01T15:37:25;18.05;;;6.95;;
19619;SDS011;9957;52.282;21.110;2023-02-01T15:40:05;17.75;;;6.88;;
19619;SDS011;9957;52.282;21.110;2023-02-01T15:42:48;25.05;;;8.85;;
19619;SDS011;9957;52.282;21.110;2023-02-01T15:45:19;19.85;;;6.50;;
19619;SDS011;9957;52.282;21.110;2023-02-01T15:47:48;19.43;;;7.27;;
19619;SDS011;9957;52.282;21.110;2023-02-01T15:50:16;15.63;;;6.55;;
19619;SDS011;9957;52.282;21.110;2023-02-01T15:52:42;14.90;;;5.65;;
19619;SDS011;9957;52.282;21.110;2023-02-01T15:55:17;18.60;;;7.05;;
19619;SDS011;9957;52.282;21.110;2023-02-01T15:57:44;18.42;;;6.75;;
19619;SDS011;9957;52.282;21.110;2023-02-01T16:00:26;18.05;;;6.28;;
19619;SDS011;9957;52.282;21.110;2023-02-01T16:02:54;15.50;;;5.90;;
19619;SDS011;9957;52.282;21.110;2023-02-01T16:07:58;18.85;;;6.70;;
19619;SDS011;9957;52.282;21.110;2023-02-01T16:10:29;18.58;;;7.45;;
19619;SDS011;9957;52.282;21.110;2023-02-01T16:12:55;19.48;;;7.47;;
19619;SDS011;9957;52.282;21.110;2023-02-01T16:15:25;18.17;;;6.78;;
19619;SDS011;9957;52.282;21.110;2023-02-01T16:17:51;22.17;;;8.00;;
19619;SDS011;9957;52.282;21.110;2023-02-01T16:20:17;111.03;;;34.90;;
19619;SDS011;9957;52.282;21.110;2023-02-01T16:22:43;82.35;;;26.25;;
19619;SDS011;9957;52.282;21.110;2023-02-01T16:25:09;20.83;;;9.43;;
19619;SDS011;9957;52.282;21.110;2023-02-01T16:27:35;32.25;;;12.93;;
19619;SDS011;9957;52.282;21.110;2023-02-01T16:30:02;27.08;;;10.77;;
19619;SDS011;9957;52.282;21.110;2023-02-01T16:32:28;25.73;;;9.50;;
19619;SDS011;9957;52.282;21.110;2023-02-01T16:34:56;51.20;;;19.27;;
19619;SDS011;9957;52.282;21.110;2023-02-01T16:37:23;78.55;;;26.80;;
19619;SDS011;9957;52.282;21.110;2023-02-01T16:39:49;20.70;;;7.22;;
19619;SDS011;9957;52.282;21.110;2023-02-01T16:42:15;29.42;;;10.32;;
19619;SDS011;9957;52.282;21.110;2023-02-01T16:44:42;21.88;;;8.63;;
19619;SDS011;9957;52.282;21.110;2023-02-01T16:47:11;25.58;;;10.30;;
19619;SDS011;9957;52.282;21.110;2023-02-01T16:49:38;24.05;;;10.60;;
19619;SDS011;9957;52.282;21.110;2023-02-01T16:52:08;23.10;;;10.43;;
19619;SDS011;9957;52.282;21.110;2023-02-01T16:54:37;22.33;;;8.40;;
19619;SDS011;9957;52.282;21.110;2023-02-01T16:57:04;23.08;;;9.38;;
19619;SDS011;9957;52.282;21.110;2023-02-01T16:59:32;18.92;;;8.18;;
19619;SDS011;9957;52.282;21.110;2023-02-01T17:01:58;22.92;;;9.18;;
19619;SDS011;9957;52.282;21.110;2023-02-01T17:04:24;24.67;;;10.30;;
19619;SDS011;9957;52.282;21.110;2023-02-01T17:06:51;21.92;;;9.80;;
19619;SDS011;9957;52.282;21.110;2023-02-01T17:09:17;20.42;;;8.35;;
19619;SDS011;9957;52.282;21.110;2023-02-01T17:11:43;21.52;;;9.30;;
19619;SDS011;9957;52.282;21.110;2023-02-01T17:14:16;29.10;;;11.00;;
19619;SDS011;9957;52.282;21.110;2023-02-01T17:16:43;24.55;;;9.95;;